createdAt,value
2022-07-30T00:19:48.951Z,50.5
2022-07-30T00:50:51.690Z,50.5
2022-07-30T01:22:54.377Z,49.4
2022-07-30T01:52:57.205Z,48.9
2022-07-30T02:22:59.433Z,48.3
2022-07-30T02:54:01.980Z,47.8
2022-07-30T03:24:04.522Z,48.3
2022-07-30T03:55:07.435Z,46.7
2022-07-30T04:25:09.620Z,47.2
2022-07-30T04:55:11.899Z,47.2
2022-07-30T05:25:14.233Z,48.3
2022-07-30T05:55:16.653Z,49.4
2022-07-30T06:26:19.181Z,52.1
2022-07-30T06:57:21.592Z,54.2
2022-07-30T07:31:24.420Z,59.6
2022-07-30T08:01:27.104Z,70.4
2022-07-30T08:31:29.514Z,70.4
2022-07-30T09:05:32.478Z,77.4
2022-07-30T09:35:35.022Z,77.9
2022-07-30T10:05:37.688Z,75.2
2022-07-30T10:35:40.270Z,74.7
2022-07-30T11:06:42.877Z,74.1
2022-07-30T11:37:45.474Z,76.8
2022-07-30T12:07:48.115Z,79
2022-07-30T12:37:50.635Z,70.4
2022-07-30T13:07:53.309Z,70.9
2022-07-30T13:37:56.046Z,73.1
2022-07-30T14:08:58.170Z,72
2022-07-30T14:42:00.836Z,73.1
2022-07-30T15:14:03.514Z,76.3
2022-07-30T15:46:06.235Z,78.4
2022-07-30T16:16:09.169Z,65.5
2022-07-30T16:47:11.915Z,70.4
2022-07-30T17:18:14.327Z,71.4
2022-07-30T17:48:16.938Z,62.8
2022-07-30T18:19:19.301Z,58.5
2022-07-30T18:49:21.794Z,55.8
2022-07-30T19:23:24.576Z,53.2
2022-07-30T19:53:27.395Z,52.1
2022-07-30T20:23:29.410Z,50.5
2022-07-30T20:54:31.982Z,48.9
2022-07-30T21:24:34.425Z,48.3
2022-07-30T21:54:37.016Z,48.9
2022-07-30T22:26:39.631Z,48.9
2022-07-30T22:56:42.635Z,48.3
2022-07-30T23:28:45.045Z,48.3
2022-07-30T23:58:47.403Z,48.3
